Dwarf, KY (41739)

8:02 PM EDT on July 06, 2015 (GMT -0400)
KKYJACKS3 | | Change Station
CLOSE
Current Station
Personal Weather Station
Location: Talbert, KY
Elevation: 994 ft
Nearby Weather Stations

Elev 994 ft 37.41 °N, 83.42 °W | Updated 2 minutes ago

Partly Cloudy
Partly Cloudy
77.2 °F
Feels Like 79 °F
N
0.0
Wind Variable Wind from North
Gusts 0.0 mph

Today
High -- | Low -- °F
--% Chance of Precip.
Yesterday
High -- | Low -- °F
Precip. -- in
6:18 AM 8:56 PM
Waning Gibbous, 71% visible
Pressure 30.04 in
Visibility 7.0 miles
Clouds Clear
Heat Index 79 °F
Dew Point 71 °F
Humidity 81%
Rainfall 0.00 in
Snow Depth Not available.
UV 1 out of 12
Pollen .30 out of 12
Air Quality Not available.
Flu Activity Not available.
METAR KJKL 062353Z AUTO 00000KT 7SM CLR 25/20 A3008 RMK AO2 SLP171 T02500200 10278 20244 56010

More Conditions Fewer Conditions

Pressure 30.04 in
Visibility 7.0 miles
Clouds Clear
Heat Index 79 °F
Dew Point 71 °F
Humidity 81%
Rainfall 0.00 in
Snow Depth Not available.
UV 1 out of 12
Pollen .30 out of 12
Air Quality Not available.
Flu Activity Not available.
METAR KJKL 062353Z AUTO 00000KT 7SM CLR 25/20 A3008 RMK AO2 SLP171 T02500200 10278 20244 56010

More Conditions Fewer Conditions

10-Day Weather Forecast

×

Almanac

Astronomy

Jul. 06, 2015 Rise Set
Actual Time
Civil Twilight
Nautical Twilight
Astronomical Twilight
Moon
Length of Visible Light
Length of Day
Tomorrow will be .
, % of the Moon is Illuminated

Today's Extremes

State Highs State Lows

Community

WunderPhotos

Upload Photos

1,835,692 photos uploaded!

WunderBlogs® & News

Nearby

Air Quality

  Air Quality AQ Index Pollutant
Not available.

Snow Depth

Station Depth Elevation

Earthquake Activity

City Distance Mag. Time & Date
Minimum magnitude displayed is 2.5.

Coastal Water Temperatures

Place Temperature

Stations

Nearby Weather Stations

Station Location Temp. Windchill Dew Point Humidity Wind Precip. Elev Updated Type